createdAt,value
2023-02-01T00:01:35.035Z,71.80
2023-02-01T00:04:22.771Z,71.80
2023-02-01T00:07:11.924Z,71.90
2023-02-01T00:10:01.585Z,72.00
2023-02-01T00:12:49.452Z,71.90
2023-02-01T00:15:36.969Z,72.00
2023-02-01T00:18:24.374Z,72.10
2023-02-01T00:21:13.024Z,72.10
2023-02-01T00:24:00.702Z,72.40
2023-02-01T00:26:48.258Z,72.30
2023-02-01T00:29:35.773Z,72.20
2023-02-01T00:32:23.376Z,72.00
2023-02-01T00:35:10.817Z,72.10
2023-02-01T00:38:00.151Z,72.10
2023-02-01T00:40:47.554Z,72.50
2023-02-01T00:43:35.748Z,72.40
2023-02-01T00:46:23.554Z,72.30
2023-02-01T00:49:11.079Z,72.40
2023-02-01T00:51:58.609Z,72.30
2023-02-01T00:54:45.959Z,72.40
2023-02-01T00:57:33.554Z,72.40
2023-02-01T01:00:21.330Z,72.90
2023-02-01T01:03:18.792Z,72.70
2023-02-01T01:06:16.391Z,72.70
2023-02-01T01:09:08.541Z,72.60
2023-02-01T01:11:55.969Z,72.70
2023-02-01T01:14:43.468Z,72.70
2023-02-01T01:17:33.009Z,72.60
2023-02-01T01:20:22.938Z,72.70
2023-02-01T01:23:11.128Z,72.40
2023-02-01T01:25:58.863Z,72.40
2023-02-01T01:28:47.090Z,72.50
2023-02-01T01:31:34.455Z,72.40
2023-02-01T01:34:21.945Z,72.40
2023-02-01T01:37:09.785Z,72.40
2023-02-01T01:39:58.497Z,72.30
2023-02-01T01:42:45.963Z,72.30
2023-02-01T01:45:36.769Z,72.30
2023-02-01T01:48:31.113Z,72.20
2023-02-01T01:51:24.437Z,72.30
2023-02-01T01:54:51.136Z,72.20
2023-02-01T01:57:45.173Z,72.30
2023-02-01T02:00:34.330Z,72.10
2023-02-01T02:03:26.603Z,72.30
2023-02-01T02:06:42.992Z,72.40
2023-02-01T02:09:30.485Z,72.60
2023-02-01T02:12:17.941Z,72.40
2023-02-01T02:15:07.650Z,72.60
2023-02-01T02:18:25.974Z,72.70
2023-02-01T02:21:28.419Z,73.00
2023-02-01T02:24:53.388Z,73.10
2023-02-01T02:28:01.580Z,73.10
2023-02-01T02:31:16.504Z,72.90
2023-02-01T02:34:30.905Z,73.20
2023-02-01T02:38:11.583Z,73.00
2023-02-01T02:41:40.039Z,72.90
2023-02-01T02:45:05.632Z,72.70
2023-02-01T02:48:31.546Z,72.60
2023-02-01T02:52:03.760Z,72.40
2023-02-01T02:54:55.837Z,72.40
2023-02-01T02:58:04.442Z,72.30
2023-02-01T03:01:11.744Z,72.50
2023-02-01T03:04:15.592Z,72.50
2023-02-01T03:07:44.127Z,72.40
2023-02-01T03:10:45.766Z,72.20
2023-02-01T03:13:55.391Z,72.10
2023-02-01T03:17:03.464Z,72.10
2023-02-01T03:19:53.513Z,72.10
2023-02-01T03:22:44.151Z,72.10
2023-02-01T03:25:34.237Z,72.20
2023-02-01T03:28:28.114Z,72.10
2023-02-01T03:31:15.875Z,72.00
2023-02-01T03:34:04.632Z,72.10
2023-02-01T03:37:08.151Z,72.00
2023-02-01T03:40:08.285Z,72.30
2023-02-01T03:43:00.540Z,72.50
2023-02-01T03:45:58.214Z,72.60
2023-02-01T03:48:45.972Z,72.70
2023-02-01T03:51:35.563Z,72.60
2023-02-01T03:54:24.063Z,72.80
2023-02-01T03:57:17.617Z,72.80
2023-02-01T04:00:26.136Z,72.60
2023-02-01T04:03:13.722Z,72.60
2023-02-01T04:06:01.175Z,72.30
2023-02-01T04:08:48.708Z,72.10
2023-02-01T04:11:36.095Z,71.90
2023-02-01T04:14:23.629Z,71.60
2023-02-01T04:17:11.044Z,71.20
2023-02-01T04:19:58.436Z,70.60
2023-02-01T04:22:45.985Z,70.40
2023-02-01T04:25:33.395Z,70.30
2023-02-01T04:28:20.765Z,69.90
2023-02-01T04:31:08.223Z,69.30
2023-02-01T04:33:58.657Z,68.70
2023-02-01T04:36:47.523Z,69.00
2023-02-01T04:39:35.443Z,69.00
2023-02-01T04:42:22.879Z,68.90
2023-02-01T04:45:11.020Z,69.00
2023-02-01T04:47:58.328Z,68.90
2023-02-01T04:50:49.705Z,69.10
2023-02-01T04:53:37.241Z,69.10
2023-02-01T04:56:24.647Z,68.70
2023-02-01T04:59:13.454Z,68.60
2023-02-01T05:02:00.840Z,67.50
2023-02-01T05:04:48.276Z,66.50
2023-02-01T05:07:35.758Z,66.70
2023-02-01T05:10:23.876Z,66.30
2023-02-01T05:13:30.654Z,66.00
2023-02-01T05:16:18.213Z,65.50
2023-02-01T05:19:05.667Z,65.60
2023-02-01T05:21:53.192Z,65.80
2023-02-01T05:24:40.653Z,65.60
2023-02-01T05:27:32.173Z,66.00
2023-02-01T05:30:19.786Z,66.00
2023-02-01T05:33:07.237Z,66.10
2023-02-01T05:35:54.667Z,66.40
2023-02-01T05:38:42.196Z,66.60
2023-02-01T05:41:30.065Z,67.00
2023-02-01T05:44:17.450Z,67.30
2023-02-01T05:47:05.198Z,67.20
2023-02-01T05:49:52.739Z,67.90
2023-02-01T05:52:40.165Z,68.40
2023-02-01T05:55:27.605Z,68.40
2023-02-01T05:58:15.166Z,68.50
2023-02-01T06:01:04.262Z,68.60
2023-02-01T06:03:51.788Z,69.00
2023-02-01T06:06:39.290Z,69.10
2023-02-01T06:09:27.207Z,69.50
2023-02-01T06:12:15.140Z,69.70
2023-02-01T06:15:02.670Z,69.70
2023-02-01T06:17:50.125Z,70.60
2023-02-01T06:20:37.659Z,70.80
2023-02-01T06:23:25.387Z,71.20
2023-02-01T06:26:12.861Z,71.20
2023-02-01T06:29:00.339Z,71.30
2023-02-01T06:31:47.774Z,71.90
2023-02-01T06:34:36.109Z,71.70
2023-02-01T06:37:30.403Z,72.20
2023-02-01T06:40:17.918Z,71.80
2023-02-01T06:43:05.564Z,72.10
2023-02-01T06:45:53.998Z,72.00
2023-02-01T06:48:41.929Z,72.20
2023-02-01T06:51:30.286Z,72.10
2023-02-01T06:54:17.891Z,72.40
2023-02-01T06:57:05.872Z,72.60
2023-02-01T06:59:53.283Z,72.60
2023-02-01T07:02:40.679Z,72.70
2023-02-01T07:05:28.148Z,72.90
2023-02-01T07:08:15.843Z,73.00
2023-02-01T07:11:10.174Z,73.20
2023-02-01T07:13:57.920Z,73.20
2023-02-01T07:16:45.374Z,73.10
2023-02-01T07:19:32.838Z,73.00
2023-02-01T07:22:20.324Z,73.00
2023-02-01T07:25:08.602Z,72.80
2023-02-01T07:27:56.054Z,72.60
2023-02-01T07:30:43.755Z,72.40
2023-02-01T07:33:31.304Z,72.10
2023-02-01T07:36:19.873Z,72.00
2023-02-01T07:39:07.352Z,71.20
2023-02-01T07:41:55.221Z,70.80
2023-02-01T07:44:42.727Z,70.90
2023-02-01T07:47:31.152Z,70.90
2023-02-01T07:50:18.663Z,70.90
2023-02-01T07:53:06.044Z,70.10
2023-02-01T07:55:53.524Z,70.20
2023-02-01T07:58:41.273Z,69.70
2023-02-01T08:01:30.417Z,69.90
2023-02-01T08:04:17.800Z,69.90
2023-02-01T08:07:05.267Z,70.10
2023-02-01T08:09:52.938Z,70.10
2023-02-01T08:12:40.410Z,69.90
2023-02-01T08:15:30.250Z,69.50
2023-02-01T08:18:18.969Z,69.30
2023-02-01T08:21:37.612Z,69.50
2023-02-01T08:24:25.214Z,69.50
2023-02-01T08:27:13.682Z,68.40
2023-02-01T08:30:01.096Z,68.50
2023-02-01T08:32:49.102Z,67.90
2023-02-01T08:35:43.314Z,67.90
2023-02-01T08:38:31.527Z,67.10
2023-02-01T08:41:23.333Z,65.80
2023-02-01T08:44:10.920Z,66.10
2023-02-01T08:46:58.405Z,65.20
2023-02-01T08:49:45.812Z,65.20
2023-02-01T08:52:35.486Z,64.70
2023-02-01T08:55:24.420Z,64.10
2023-02-01T08:58:11.707Z,64.50
2023-02-01T09:01:09.326Z,64.10
2023-02-01T09:03:57.157Z,64.30
2023-02-01T09:06:44.613Z,63.20
2023-02-01T09:09:32.140Z,63.50
2023-02-01T09:12:21.325Z,63.30
2023-02-01T09:15:10.003Z,63.00
2023-02-01T09:17:57.552Z,62.50
2023-02-01T09:20:45.037Z,62.70
2023-02-01T09:23:32.866Z,62.50
2023-02-01T09:26:26.544Z,62.50
2023-02-01T09:29:18.764Z,62.80
2023-02-01T09:32:07.620Z,62.90
2023-02-01T09:34:55.133Z,63.00
2023-02-01T09:37:42.620Z,63.00
2023-02-01T09:40:30.065Z,62.50
2023-02-01T09:44:10.647Z,62.50
2023-02-01T09:46:59.042Z,62.40
2023-02-01T09:50:07.664Z,62.30
2023-02-01T09:53:31.147Z,62.20
2023-02-01T09:56:43.373Z,62.10
2023-02-01T09:59:50.239Z,62.30
2023-02-01T10:02:41.029Z,62.60
2023-02-01T10:06:21.031Z,62.10
2023-02-01T10:09:31.914Z,61.50
2023-02-01T10:12:58.210Z,61.60
2023-02-01T10:16:09.780Z,61.70
2023-02-01T10:19:46.244Z,62.10
2023-02-01T10:23:08.738Z,62.30
2023-02-01T10:26:33.600Z,63.10
2023-02-01T10:29:27.332Z,63.50
2023-02-01T10:32:20.906Z,64.10
2023-02-01T10:35:28.298Z,64.40
2023-02-01T10:39:16.100Z,63.90
2023-02-01T10:42:03.973Z,64.30
2023-02-01T11:16:11.209Z,69.40
2023-02-01T11:19:03.222Z,69.00
2023-02-01T11:22:02.184Z,70.00
2023-02-01T11:25:22.500Z,70.20
2023-02-01T11:28:11.043Z,68.80
2023-02-01T11:31:02.884Z,68.20
2023-02-01T11:34:00.524Z,66.80
2023-02-01T11:36:50.771Z,67.20
2023-02-01T11:39:38.260Z,65.50
2023-02-01T11:42:29.296Z,61.70
2023-02-01T11:45:32.762Z,62.30
2023-02-01T11:48:26.857Z,61.90
2023-02-01T11:51:53.873Z,61.20
2023-02-01T11:54:44.245Z,61.00
2023-02-01T11:57:53.967Z,60.90
2023-02-01T12:01:17.747Z,60.60
2023-02-01T12:04:39.142Z,61.00
2023-02-01T12:07:36.989Z,62.60
2023-02-01T12:10:59.701Z,63.20
2023-02-01T12:14:08.595Z,63.90
2023-02-01T12:17:52.314Z,64.00
2023-02-01T12:20:56.649Z,64.10
2023-02-01T12:24:13.485Z,64.60
2023-02-01T12:27:14.793Z,64.70
2023-02-01T12:30:11.454Z,64.80
2023-02-01T12:33:44.073Z,65.00
2023-02-01T12:36:55.312Z,65.20
2023-02-01T12:40:13.592Z,65.10
2023-02-01T12:43:27.411Z,65.20
2023-02-01T12:46:34.680Z,65.90
2023-02-01T12:49:50.146Z,66.20
2023-02-01T12:53:10.328Z,66.20
2023-02-01T12:56:08.421Z,66.60
2023-02-01T12:59:02.179Z,67.00
2023-02-01T13:02:19.735Z,67.90
2023-02-01T13:05:20.290Z,68.60
2023-02-01T13:08:26.429Z,68.60
2023-02-01T13:11:27.337Z,68.40
2023-02-01T13:14:38.342Z,68.90
2023-02-01T13:17:33.266Z,68.60
2023-02-01T13:20:51.881Z,69.30
2023-02-01T13:23:43.103Z,69.40
2023-02-01T13:26:32.025Z,69.50
2023-02-01T13:29:21.974Z,69.40
2023-02-01T13:33:51.434Z,69.30
2023-02-01T13:35:52.766Z,69.30
2023-02-01T13:39:20.870Z,69.50
2023-02-01T13:42:30.854Z,69.50
2023-02-01T13:45:46.148Z,69.30
2023-02-01T13:48:58.606Z,70.10
2023-02-01T13:51:52.425Z,69.30
2023-02-01T13:54:41.417Z,69.50
2023-02-01T13:57:47.138Z,69.50
2023-02-01T14:00:37.788Z,69.80
2023-02-01T14:03:47.537Z,69.40
2023-02-01T14:06:45.524Z,69.00
2023-02-01T14:09:38.180Z,68.90
2023-02-01T14:12:50.414Z,68.50
2023-02-01T14:15:38.080Z,68.50
2023-02-01T14:18:38.346Z,68.20
2023-02-01T14:21:38.410Z,68.10
2023-02-01T14:24:35.216Z,68.00
2023-02-01T14:27:31.105Z,67.80
2023-02-01T14:30:20.683Z,67.50
2023-02-01T14:33:34.525Z,67.10
2023-02-01T14:36:22.315Z,67.10
2023-02-01T14:39:30.400Z,66.80
2023-02-01T14:42:28.496Z,66.70
2023-02-01T14:45:18.545Z,66.90
2023-02-01T14:48:08.912Z,66.20
2023-02-01T14:51:00.912Z,66.40
2023-02-01T14:53:49.282Z,66.10
2023-02-01T14:56:36.916Z,66.10
2023-02-01T14:59:34.138Z,65.20
2023-02-01T15:02:31.107Z,65.40
2023-02-01T15:05:30.838Z,64.60
2023-02-01T15:08:25.143Z,64.70
2023-02-01T15:11:17.484Z,64.60
2023-02-01T15:14:15.461Z,64.60
2023-02-01T15:17:04.224Z,64.50
2023-02-01T15:19:59.621Z,64.00
2023-02-01T15:23:02.201Z,64.20
2023-02-01T15:25:50.125Z,63.80
2023-02-01T15:28:39.607Z,63.40
2023-02-01T15:31:45.703Z,63.20
2023-02-01T15:34:51.246Z,63.50
2023-02-01T15:37:38.729Z,63.30
2023-02-01T15:40:26.794Z,63.20
2023-02-01T15:43:14.411Z,63.10
2023-02-01T15:46:08.276Z,63.30
2023-02-01T15:48:56.164Z,63.50
2023-02-01T15:51:47.757Z,63.40
2023-02-01T15:55:01.561Z,63.30
2023-02-01T15:57:50.054Z,63.50
2023-02-01T16:00:55.061Z,63.70
2023-02-01T16:03:46.033Z,64.00
2023-02-01T16:06:35.914Z,64.30
2023-02-01T16:09:36.013Z,64.50
2023-02-01T16:12:46.137Z,64.60
2023-02-01T16:15:34.455Z,64.70
2023-02-01T16:18:22.487Z,64.70
2023-02-01T16:21:10.256Z,64.90
2023-02-01T16:23:57.897Z,64.90
2023-02-01T16:26:45.467Z,64.90
2023-02-01T16:29:32.857Z,65.00
2023-02-01T16:32:22.865Z,65.00
2023-02-01T16:35:36.605Z,65.10
2023-02-01T16:38:24.627Z,65.20
2023-02-01T16:41:17.269Z,65.20
2023-02-01T16:44:04.933Z,65.20
2023-02-01T16:46:52.840Z,65.00
2023-02-01T16:49:44.012Z,65.00
2023-02-01T16:52:31.635Z,64.90
2023-02-01T16:55:23.106Z,64.90
2023-02-01T16:58:11.200Z,64.70
2023-02-01T17:00:38.754Z,64.70
2023-02-01T17:03:06.417Z,64.70
2023-02-01T17:05:35.356Z,64.70
2023-02-01T17:08:07.983Z,64.70
2023-02-01T17:10:35.074Z,64.60
2023-02-01T17:13:03.368Z,64.60
2023-02-01T17:15:35.842Z,64.60
2023-02-01T17:18:03.798Z,64.60
2023-02-01T17:20:33.232Z,64.40
2023-02-01T17:23:01.256Z,64.40
2023-02-01T17:25:32.730Z,64.40
2023-02-01T17:28:00.422Z,64.20
2023-02-01T17:30:28.407Z,64.10
2023-02-01T17:32:57.012Z,63.90
2023-02-01T17:35:27.828Z,64.10
2023-02-01T17:37:56.191Z,64.10
2023-02-01T17:40:24.281Z,64.00
2023-02-01T17:42:52.391Z,64.10
2023-02-01T17:45:36.741Z,64.10
2023-02-01T17:48:08.767Z,64.20
2023-02-01T17:50:39.584Z,64.20
2023-02-01T17:53:10.629Z,64.30
2023-02-01T17:55:43.171Z,64.50
2023-02-01T17:58:13.744Z,64.40
2023-02-01T18:00:43.024Z,64.40
2023-02-01T18:03:25.953Z,64.60
2023-02-01T18:05:56.438Z,64.70
2023-02-01T18:08:29.825Z,64.90
2023-02-01T18:11:01.728Z,65.20
2023-02-01T18:13:31.450Z,65.50
2023-02-01T18:16:03.673Z,65.60
2023-02-01T18:18:33.786Z,65.70
2023-02-01T18:21:01.620Z,66.00
2023-02-01T18:23:28.910Z,66.20
2023-02-01T18:25:56.134Z,66.20
2023-02-01T18:28:23.447Z,66.40
2023-02-01T18:30:51.771Z,66.60
2023-02-01T18:33:21.319Z,66.70
2023-02-01T18:35:49.072Z,66.80
2023-02-01T18:38:16.646Z,66.70
2023-02-01T18:40:51.877Z,67.00
2023-02-01T18:43:21.064Z,67.10
2023-02-01T18:45:49.055Z,67.30
2023-02-01T18:48:19.621Z,67.30
2023-02-01T18:50:47.043Z,67.30
2023-02-01T18:53:23.968Z,67.50
2023-02-01T18:55:53.793Z,67.70
2023-02-01T18:58:26.391Z,67.60
2023-02-01T19:01:04.766Z,67.70
2023-02-01T19:03:32.185Z,68.80
2023-02-01T19:05:59.585Z,69.10
2023-02-01T19:08:26.990Z,70.40
2023-02-01T19:10:55.233Z,70.20
2023-02-01T19:13:24.845Z,71.50
2023-02-01T19:15:52.791Z,71.90
2023-02-01T19:18:23.027Z,72.80
2023-02-01T19:20:54.983Z,73.80
2023-02-01T19:23:22.685Z,73.20
2023-02-01T19:25:50.025Z,73.50
2023-02-01T19:28:17.460Z,74.00
2023-02-01T19:30:45.071Z,73.80
2023-02-01T19:33:12.551Z,74.30
2023-02-01T19:35:40.088Z,75.50
2023-02-01T19:38:07.748Z,75.40
2023-02-01T19:40:35.154Z,75.50
2023-02-01T19:43:02.477Z,75.40
2023-02-01T19:45:29.717Z,75.60
2023-02-01T19:47:57.043Z,76.70
2023-02-01T19:50:24.428Z,76.20
2023-02-01T19:52:51.771Z,76.20
2023-02-01T19:55:19.077Z,76.30
2023-02-01T19:57:46.438Z,76.60
2023-02-01T20:00:13.464Z,76.40
2023-02-01T20:02:40.932Z,76.50
2023-02-01T20:05:10.886Z,77.00
2023-02-01T20:07:38.640Z,76.90
2023-02-01T20:10:07.527Z,77.00
2023-02-01T20:12:35.054Z,77.20
2023-02-01T20:15:04.217Z,77.30
2023-02-01T20:17:33.033Z,77.30
2023-02-01T20:20:00.319Z,77.20
2023-02-01T20:22:27.719Z,77.20
2023-02-01T20:24:57.466Z,77.00
2023-02-01T20:27:26.238Z,77.20
2023-02-01T20:29:53.530Z,77.00
2023-02-01T20:32:20.911Z,77.00
2023-02-01T20:34:51.152Z,76.90
2023-02-01T20:37:18.874Z,77.20
2023-02-01T20:39:46.183Z,77.00
2023-02-01T20:42:13.623Z,77.00
2023-02-01T20:44:40.933Z,76.90
2023-02-01T20:47:08.193Z,76.70
2023-02-01T20:49:35.499Z,76.40
2023-02-01T20:52:02.789Z,76.40
2023-02-01T20:54:30.063Z,76.10
2023-02-01T20:56:57.295Z,75.80
2023-02-01T20:59:24.593Z,75.50
2023-02-01T21:01:53.229Z,75.30
2023-02-01T21:04:27.489Z,75.30
2023-02-01T21:06:57.222Z,75.30
2023-02-01T21:09:26.017Z,74.90
2023-02-01T21:11:53.813Z,74.80
2023-02-01T21:14:21.593Z,74.40
2023-02-01T21:16:49.655Z,73.50
2023-02-01T21:19:20.401Z,73.50
2023-02-01T21:21:47.852Z,73.50
2023-02-01T21:24:15.194Z,72.70
2023-02-01T21:26:42.621Z,72.30
2023-02-01T21:29:15.523Z,72.30
2023-02-01T21:31:43.579Z,72.30
2023-02-01T21:34:11.293Z,71.90
2023-02-01T21:36:38.585Z,71.80
2023-02-01T21:39:08.493Z,71.70
2023-02-01T21:41:55.390Z,71.80
2023-02-01T21:44:23.961Z,70.90
2023-02-01T21:46:51.234Z,72.00
2023-02-01T21:49:18.613Z,70.60
2023-02-01T21:51:47.709Z,70.80
2023-02-01T21:54:15.373Z,70.70
2023-02-01T21:56:43.080Z,70.60
2023-02-01T21:59:10.832Z,70.70
2023-02-01T22:01:40.358Z,70.60
2023-02-01T22:04:08.747Z,70.30
2023-02-01T22:06:41.341Z,70.40
2023-02-01T22:09:39.040Z,69.70
2023-02-01T22:12:06.589Z,69.60
2023-02-01T22:14:34.090Z,69.60
2023-02-01T22:17:01.361Z,69.60
2023-02-01T22:19:28.670Z,69.60
2023-02-01T22:21:55.994Z,69.30
2023-02-01T22:24:23.360Z,68.60
2023-02-01T22:26:51.056Z,68.30
2023-02-01T22:29:19.386Z,68.20
2023-02-01T22:31:47.212Z,68.00
2023-02-01T22:34:15.631Z,66.90
2023-02-01T22:36:43.464Z,67.30
2023-02-01T22:39:11.085Z,67.80
2023-02-01T22:41:38.392Z,67.40
2023-02-01T22:44:06.638Z,66.50
2023-02-01T22:46:34.199Z,66.50
2023-02-01T22:49:01.840Z,66.30
2023-02-01T22:51:32.290Z,66.50
2023-02-01T22:54:00.059Z,66.10
2023-02-01T22:56:34.870Z,66.50
2023-02-01T22:59:08.021Z,67.70
2023-02-01T23:01:35.894Z,71.30
2023-02-01T23:04:07.474Z,72.30
2023-02-01T23:06:36.302Z,73.40
2023-02-01T23:09:20.925Z,73.80
2023-02-01T23:11:49.713Z,74.40
2023-02-01T23:14:18.099Z,75.60
2023-02-01T23:16:46.655Z,78.40
2023-02-01T23:19:14.613Z,80.60
2023-02-01T23:21:42.254Z,79.50
2023-02-01T23:24:10.819Z,79.30
2023-02-01T23:26:38.996Z,78.50
2023-02-01T23:29:06.326Z,80.90
2023-02-01T23:31:35.887Z,80.40
2023-02-01T23:34:04.362Z,80.10
2023-02-01T23:36:33.146Z,79.60
2023-02-01T23:39:01.905Z,79.60
2023-02-01T23:41:30.125Z,80.40
2023-02-01T23:44:01.129Z,81.00
2023-02-01T23:46:59.274Z,81.10
2023-02-01T23:49:26.433Z,82.60
2023-02-01T23:51:53.881Z,83.90
2023-02-01T23:54:23.759Z,83.40
2023-02-01T23:56:51.374Z,83.00
2023-02-01T23:59:26.612Z,84.50
